Time;durP1;ratioP1;P1;durP2;ratioP2;P2;SDS_P1;SDS_P2;PMS_P1;PMS_P2;Temp;Humidity;BMP_temperature;BMP_pressure;BME280_temperature;BME280_humidity;BME280_pressure;Samples;Min_cycle;Max_cycle;Signal;HPM_P1;HPM_P2
2022/09/24 00:00:38;;;;;;;25.13;18.77;;;;;;;11.84;100.00;101045.06;1978974;28;20029;-71
2022/09/24 00:01:39;;;;;;;20.17;17.30;;;;;;;11.81;100.00;101045.19;1985562;28;20107;-71
2022/09/24 00:02:37;;;;;;;23.90;18.48;;;;;;;11.81;100.00;101050.44;1978738;28;20519;-71
2022/09/24 00:03:34;;;;;;;22.40;17.75;;;;;;;11.80;100.00;101043.50;1978731;28;20077;-73
2022/09/24 00:04:32;;;;;;;26.30;18.27;;;;;;;11.79;100.00;101051.41;1977586;28;20013;-70
2022/09/24 00:05:29;;;;;;;23.60;18.20;;;;;;;11.80;100.00;101048.75;1978782;28;20025;-72
2022/09/24 00:06:41;;;;;;;24.15;18.20;;;;;;;11.78;100.00;101047.97;1979752;28;20047;-70
2022/09/24 00:07:38;;;;;;;24.20;17.98;;;;;;;11.73;100.00;101042.06;1979269;28;20061;-71
2022/09/24 00:08:36;;;;;;;22.73;17.98;;;;;;;11.74;100.00;101053.41;1979111;28;20067;-71
2022/09/24 00:09:33;;;;;;;23.75;17.75;;;;;;;11.75;100.00;101045.50;1978457;28;20145;-71
2022/09/24 00:10:39;;;;;;;22.75;18.30;;;;;;;11.77;100.00;101050.66;1978582;28;20029;-69
2022/09/24 00:11:37;;;;;;;23.35;17.30;;;;;;;11.74;100.00;101043.81;1979073;28;20052;-70
2022/09/24 00:12:36;;;;;;;24.75;17.38;;;;;;;11.76;100.00;101046.31;1977021;28;20034;-71
2022/09/24 00:13:34;;;;;;;23.88;18.05;;;;;;;11.75;100.00;101045.50;1978246;28;20029;-71
2022/09/24 00:14:32;;;;;;;22.80;17.75;;;;;;;11.75;100.00;101037.66;1978283;28;20104;-70
2022/09/24 00:15:30;;;;;;;24.23;18.10;;;;;;;11.75;100.00;101035.03;1978747;28;20048;-71
2022/09/24 00:16:31;;;;;;;23.45;17.67;;;;;;;11.78;100.00;101034.91;1979038;28;20056;-72
2022/09/24 00:17:29;;;;;;;22.23;16.90;;;;;;;11.77;100.00;101040.19;1978341;28;20067;-73
2022/09/24 00:18:28;;;;;;;22.35;17.90;;;;;;;11.75;100.00;101040.25;1978310;28;20037;-70
2022/09/24 00:19:25;;;;;;;23.95;17.42;;;;;;;11.75;100.00;101035.03;1976245;28;20026;-70
2022/09/24 00:20:23;;;;;;;23.05;17.55;;;;;;;11.74;100.00;101033.34;1978283;28;20037;-70
2022/09/24 00:21:29;;;;;;;22.80;17.42;;;;;;;11.77;100.00;101035.78;1978764;28;20041;-72
2022/09/24 00:22:26;;;;;;;21.20;17.85;;;;;;;11.82;100.00;101030.38;1978913;28;20025;-71
2022/09/24 00:23:24;;;;;;;24.20;17.42;;;;;;;11.76;100.00;101030.63;1978978;28;20059;-71
2022/09/24 00:27:01;;;;;;;23.17;17.30;;;;;;;11.74;100.00;101022.88;1978884;28;20033;-70
2022/09/24 00:27:59;;;;;;;20.92;17.58;;;;;;;11.75;100.00;101032.41;1978702;28;20079;-71
2022/09/24 00:28:57;;;;;;;22.90;17.58;;;;;;;11.78;100.00;101029.69;1978757;28;20796;-71
2022/09/24 00:29:55;;;;;;;21.73;17.38;;;;;;;11.74;100.00;101022.03;1978707;28;20057;-72
2022/09/24 00:30:56;;;;;;;22.05;17.75;;;;;;;11.72;100.00;101022.94;1978621;28;20136;-71
2022/09/24 00:31:53;;;;;;;22.52;17.30;;;;;;;11.75;100.00;101018.50;1985905;28;20535;-71
2022/09/24 00:32:51;;;;;;;23.55;18.70;;;;;;;11.70;100.00;101018.69;1986054;28;20024;-71
2022/09/24 00:33:53;;;;;;;21.63;18.20;;;;;;;11.74;100.00;101020.28;1979405;28;20021;-71
2022/09/24 00:34:52;;;;;;;22.95;18.15;;;;;;;11.75;100.00;101024.56;1978793;28;20078;-71
2022/09/24 00:35:50;;;;;;;24.77;18.33;;;;;;;11.72;100.00;101017.72;1978704;28;20026;-73
2022/09/24 00:36:52;;;;;;;21.42;17.40;;;;;;;11.69;100.00;101014.38;1978888;28;20045;-73
2022/09/24 00:37:49;;;;;;;25.15;17.50;;;;;;;11.74;100.00;101020.28;1978073;28;20029;-71
2022/09/24 00:38:54;;;;;;;23.88;18.48;;;;;;;11.75;100.00;101019.34;1978246;28;20038;-71
2022/09/24 00:39:51;;;;;;;20.95;17.35;;;;;;;11.71;100.00;101017.78;1978717;28;20028;-70
2022/09/24 00:40:49;;;;;;;20.20;16.50;;;;;;;11.69;100.00;101015.25;1985927;28;20062;-70
2022/09/24 00:41:47;;;;;;;20.95;16.77;;;;;;;11.71;100.00;101023.00;1985543;28;20031;-70
2022/09/24 00:42:45;;;;;;;23.70;17.63;;;;;;;11.76;100.00;101014.94;1977794;28;20043;-72
2022/09/24 00:43:42;;;;;;;21.23;16.30;;;;;;;11.69;100.00;101014.38;1978628;28;20025;-72
2022/09/24 00:44:53;;;;;;;22.42;17.73;;;;;;;11.74;100.00;101017.66;1986104;28;20021;-71
2022/09/24 00:45:56;;;;;;;19.05;15.55;;;;;;;11.77;100.00;101011.44;1985217;28;20052;-71
2022/09/24 00:46:54;;;;;;;22.17;16.48;;;;;;;11.75;100.00;101019.34;1978897;28;20473;-73
2022/09/24 00:47:52;;;;;;;20.95;16.42;;;;;;;11.77;100.00;101012.25;1978727;28;20067;-72
2022/09/24 00:49:00;;;;;;;22.75;17.08;;;;;;;11.73;100.00;101015.94;1978653;28;20028;-71
2022/09/24 00:50:23;;;;;;;20.42;16.58;;;;;;;11.74;100.00;101011.56;1978665;28;20499;-71
2022/09/24 00:51:25;;;;;;;20.13;15.45;;;;;;;11.74;100.00;101011.56;1978726;28;20032;-71
2022/09/24 00:52:23;;;;;;;20.10;16.23;;;;;;;11.76;100.00;101012.34;1978657;28;20055;-70
2022/09/24 00:53:27;;;;;;;19.30;15.82;;;;;;;11.73;100.00;101010.72;1978645;28;20025;-69
2022/09/24 00:54:28;;;;;;;19.40;15.70;;;;;;;11.71;100.00;101005.53;1986053;28;20450;-70
2022/09/24 00:55:26;;;;;;;20.35;16.25;;;;;;;11.75;100.00;101008.03;1986055;28;20029;-70
2022/09/24 00:56:24;;;;;;;19.58;15.50;;;;;;;11.71;100.00;101007.34;1985199;28;20037;-71
2022/09/24 00:57:23;;;;;;;21.20;15.70;;;;;;;11.74;100.00;101007.19;1986301;28;20033;-70
2022/09/24 00:58:22;;;;;;;20.08;16.30;;;;;;;11.72;100.00;101003.78;1979217;28;20047;-70
2022/09/24 00:59:23;;;;;;;21.83;16.60;;;;;;;11.69;100.00;101004.78;1978582;28;20424;-70
2022/09/24 01:00:22;;;;;;;19.83;15.05;;;;;;;11.68;100.00;101002.22;1978645;28;20034;-71
2022/09/24 01:01:24;;;;;;;22.17;16.27;;;;;;;11.71;100.00;101002.94;1978444;28;20064;-70
2022/09/24 01:02:24;;;;;;;19.15;16.20;;;;;;;11.72;100.00;101001.19;1985795;28;20036;-71
2022/09/24 01:03:25;;;;;;;20.70;16.10;;;;;;;11.70;100.00;100995.16;1985785;28;20029;-71
2022/09/24 01:04:25;;;;;;;20.13;15.25;;;;;;;11.62;100.00;100990.28;1978826;28;20036;-71
2022/09/24 01:05:23;;;;;;;19.23;15.95;;;;;;;11.63;100.00;100993.75;1977753;28;20129;-70
2022/09/24 01:06:22;;;;;;;19.65;15.15;;;;;;;11.66;100.00;100991.84;1978175;28;20472;-70
2022/09/24 01:07:24;;;;;;;18.60;15.03;;;;;;;11.69;100.00;100993.47;1978476;28;20030;-69
2022/09/24 01:08:21;;;;;;;20.13;15.00;;;;;;;11.69;100.00;100988.22;1978570;28;20315;-70
2022/09/24 01:09:26;;;;;;;20.90;16.35;;;;;;;11.69;100.00;100989.09;1978630;28;20033;-72
2022/09/24 01:10:54;;;;;;;21.77;16.00;;;;;;;11.64;100.00;100990.22;1977924;28;20120;-69
2022/09/24 01:12:32;;;;;;;19.40;14.93;;;;;;;11.65;100.00;100986.69;1977302;28;20028;-69
2022/09/24 01:13:50;;;;;;;17.42;13.77;;;;;;;11.59;100.00;100991.28;1962327;28;20074;-70
2022/09/24 01:15:14;;;;;;;16.75;13.82;;;;;;;11.56;100.00;100988.78;1978912;28;20060;-71
2022/09/24 01:16:34;;;;;;;20.42;15.20;;;;;;;11.61;100.00;100985.13;1977690;28;20025;-71
2022/09/24 01:17:54;;;;;;;20.30;15.27;;;;;;;11.60;100.00;100984.25;1978198;28;20151;-71
2022/09/24 01:19:21;;;;;;;18.33;14.52;;;;;;;11.58;100.00;100976.50;1978354;28;20362;-71
2022/09/24 01:20:48;;;;;;;20.50;15.55;;;;;;;11.59;100.00;100975.59;1978307;28;20033;-70
2022/09/24 01:21:58;;;;;;;20.98;14.43;;;;;;;11.54;100.00;100974.94;1978484;28;20041;-71
2022/09/24 01:23:17;;;;;;;17.70;14.25;;;;;;;11.55;100.00;100971.41;1977854;28;20374;-71
2022/09/24 01:24:23;;;;;;;23.98;15.40;;;;;;;11.55;100.00;100970.56;1971932;28;20037;-69
2022/09/24 01:25:53;;;;;;;18.58;15.25;;;;;;;11.57;100.00;100968.75;1977912;28;20032;-69
2022/09/24 01:27:12;;;;;;;19.65;14.75;;;;;;;11.56;100.00;100965.25;1978441;28;20029;-71
2022/09/24 01:29:13;;;;;;;19.10;15.20;;;;;;;11.56;100.00;100961.78;1978499;28;20436;-72
2022/09/24 01:30:14;;;;;;;19.75;14.20;;;;;;;11.56;100.00;100965.25;1977677;28;20038;-70
2022/09/24 01:31:24;;;;;;;21.30;15.48;;;;;;;11.56;100.00;100962.66;1977398;28;20021;-71
2022/09/24 01:32:49;;;;;;;17.38;14.57;;;;;;;11.59;100.00;100962.53;1978302;28;20025;-72
2022/09/24 01:33:52;;;;;;;20.35;14.75;;;;;;;11.59;100.00;100961.66;1978296;28;20505;-70
2022/09/24 01:34:59;;;;;;;18.33;15.55;;;;;;;11.61;100.00;100956.38;1978401;28;20393;-71
2022/09/24 01:36:07;;;;;;;19.67;15.15;;;;;;;11.58;100.00;100958.22;1978350;28;20032;-71
2022/09/24 01:37:05;;;;;;;18.25;15.45;;;;;;;11.61;100.00;100954.59;1978309;28;20030;-71
2022/09/24 01:38:12;;;;;;;18.88;15.02;;;;;;;11.60;100.00;100960.72;1985540;28;20021;-71
2022/09/24 01:39:13;;;;;;;20.30;15.75;;;;;;;11.61;100.00;100956.38;1985166;28;20067;-70
2022/09/24 01:40:12;;;;;;;20.10;15.18;;;;;;;11.62;100.00;100958.06;1978445;28;20029;-72
2022/09/24 01:41:14;;;;;;;20.13;15.70;;;;;;;11.64;100.00;100951.00;1978426;28;20036;-72
2022/09/24 01:42:14;;;;;;;19.60;14.90;;;;;;;11.61;100.00;100953.75;1976233;28;20180;-71
2022/09/24 01:43:16;;;;;;;20.27;15.77;;;;;;;11.62;100.00;100951.06;1978381;28;20033;-70
2022/09/24 01:44:17;;;;;;;18.27;14.98;;;;;;;11.64;100.00;100954.47;1978243;28;20036;-70
2022/09/24 01:45:16;;;;;;;19.73;15.55;;;;;;;11.66;100.00;100955.25;1978224;28;20099;-72
2022/09/24 01:46:18;;;;;;;22.38;15.90;;;;;;;11.65;100.00;100950.06;1978280;28;20377;-70
2022/09/24 01:47:30;;;;;;;20.23;15.85;;;;;;;11.64;100.00;100948.41;1978225;28;20397;-70
2022/09/24 01:48:29;;;;;;;20.73;15.82;;;;;;;11.63;100.00;100954.53;1977511;28;20029;-70
2022/09/24 01:49:27;;;;;;;19.20;15.43;;;;;;;11.63;100.00;100952.75;1977520;28;20040;-71
2022/09/24 01:50:28;;;;;;;18.88;14.85;;;;;;;11.57;100.00;100946.03;1978226;28;20025;-71
2022/09/24 01:51:42;;;;;;;19.80;15.75;;;;;;;11.58;100.00;100950.38;1978226;28;20412;-69
2022/09/24 01:52:52;;;;;;;21.70;15.30;;;;;;;11.57;100.00;100950.44;1978186;28;20026;-71
2022/09/24 01:54:21;;;;;;;19.73;15.80;;;;;;;11.55;100.00;100949.66;1977514;28;20034;-70
2022/09/24 01:55:26;;;;;;;22.35;15.93;;;;;;;11.56;100.00;100946.97;1977837;28;20032;-69
2022/09/24 01:56:29;;;;;;;19.75;16.05;;;;;;;11.55;100.00;100947.91;1978142;28;20029;-71
2022/09/24 01:57:38;;;;;;;20.80;15.88;;;;;;;11.54;100.00;100945.34;1978109;28;20083;-70
2022/09/24 01:58:50;;;;;;;21.52;16.65;;;;;;;11.53;100.00;100944.50;1977525;28;20115;-70
2022/09/24 01:59:58;;;;;;;19.40;15.70;;;;;;;11.56;100.00;100949.59;1978417;28;20024;-69
2022/09/24 02:01:12;;;;;;;21.35;16.13;;;;;;;11.56;100.00;100946.97;1977510;28;20043;-70
2022/09/24 02:02:32;;;;;;;21.50;16.67;;;;;;;11.57;100.00;100947.84;1971184;28;20026;-70
2022/09/24 02:03:38;;;;;;;22.33;16.50;;;;;;;11.54;100.00;100943.59;1977785;28;20057;-70
2022/09/24 02:04:46;;;;;;;20.20;16.73;;;;;;;11.57;100.00;100943.44;1978045;28;20057;-70
2022/09/24 02:05:57;;;;;;;21.73;16.80;;;;;;;11.57;100.00;100945.22;1978182;28;20056;-70
2022/09/24 02:07:02;;;;;;;20.17;15.63;;;;;;;11.55;100.00;100944.41;1978182;28;20033;-71
2022/09/24 02:08:13;;;;;;;22.38;16.38;;;;;;;11.56;100.00;100949.59;1978165;28;20028;-70
2022/09/24 02:09:35;;;;;;;21.45;16.85;;;;;;;11.57;100.00;100943.44;1978214;28;20108;-70
2022/09/24 02:10:45;;;;;;;22.75;17.08;;;;;;;11.58;100.00;100939.91;1978121;28;20024;-71
2022/09/24 02:11:43;;;;;;;;;;;;;;;11.52;100.00;100934.97;1977769;28;20052;-70
2022/09/24 02:12:49;;;;;;;20.33;15.75;;;;;;;11.54;100.00;100940.97;1975371;28;19912;-71
2022/09/24 02:13:59;;;;;;;22.55;17.33;;;;;;;11.55;100.00;100933.97;1978068;28;20022;-71
2022/09/24 02:15:13;;;;;;;24.55;17.92;;;;;;;11.54;100.00;100932.28;1978193;28;20121;-70
2022/09/24 02:16:15;;;;;;;23.70;17.77;;;;;;;11.57;100.00;100932.97;1978035;28;20029;-69
2022/09/24 02:17:15;;;;;;;25.65;17.90;;;;;;;11.56;100.00;100936.50;1985281;28;20031;-71
2022/09/24 02:18:21;;;;;;;23.63;17.88;;;;;;;11.61;100.00;100938.06;1985380;28;20037;-71
2022/09/24 02:19:25;;;;;;;24.45;18.08;;;;;;;11.62;100.00;100937.16;1978147;28;20039;-69
2022/09/24 02:20:26;;;;;;;25.23;18.55;;;;;;;11.62;100.00;100939.75;1977751;28;20037;-70
2022/09/24 02:21:27;;;;;;;23.17;17.83;;;;;;;11.63;100.00;100934.47;1978088;28;20488;-70
2022/09/24 02:22:25;;;;;;;26.50;19.08;;;;;;;11.67;100.00;100932.56;1978007;28;20047;-72
2022/09/24 02:23:27;;;;;;;25.27;18.95;;;;;;;11.67;100.00;100927.34;1977955;28;20037;-70
2022/09/24 02:24:58;;;;;;;26.27;18.27;;;;;;;11.62;100.00;100924.06;1977204;28;20018;-71
2022/09/24 02:26:02;;;;;;;21.98;16.75;;;;;;;11.66;100.00;100936.09;1970164;28;20060;-70
2022/09/24 02:27:00;;;;;;;24.45;18.33;;;;;;;11.66;100.00;100931.72;1977860;28;20029;-70
2022/09/24 02:27:58;;;;;;;24.42;18.67;;;;;;;11.69;100.00;100941.19;1977256;28;20389;-70
2022/09/24 02:28:58;;;;;;;22.45;17.85;;;;;;;11.66;100.00;100930.84;1977301;28;20026;-70
2022/09/24 02:30:00;;;;;;;25.05;19.38;;;;;;;11.67;100.00;100929.97;1977985;28;20518;-71
2022/09/24 02:31:12;;;;;;;26.50;18.92;;;;;;;11.71;100.00;100931.50;1985020;28;20061;-71
2022/09/24 02:32:17;;;;;;;25.65;18.92;;;;;;;11.69;100.00;100928.97;1984154;28;20454;-69
2022/09/24 02:34:42;;;;;;;24.88;18.65;;;;;;;11.65;100.00;100929.16;1977805;28;20045;-69
2022/09/24 02:35:41;;;;;;;24.70;18.98;;;;;;;11.66;100.00;100931.72;1977840;28;20056;-69
2022/09/24 02:36:39;;;;;;;23.60;19.13;;;;;;;11.69;100.00;100920.25;1977821;28;20104;-69
2022/09/24 02:37:42;;;;;;;26.58;19.50;;;;;;;11.71;100.00;100928.91;1977912;28;20452;-69
2022/09/24 02:38:42;;;;;;;26.40;20.08;;;;;;;11.70;100.00;100927.19;1977750;28;20025;-69
2022/09/24 02:39:40;;;;;;;27.48;20.05;;;;;;;11.69;100.00;100920.25;1977885;28;20017;-69
2022/09/24 02:40:38;;;;;;;27.17;20.88;;;;;;;11.71;100.00;100923.66;1977942;28;20042;-69
2022/09/24 02:41:36;;;;;;;28.98;21.45;;;;;;;11.70;100.00;100920.19;1977745;28;20416;-70
2022/09/24 02:42:34;;;;;;;30.00;20.65;;;;;;;11.67;100.00;100925.56;1974197;28;20029;-69
2022/09/24 02:43:34;;;;;;;28.73;20.90;;;;;;;11.73;100.00;100927.03;1977217;28;20479;-70
2022/09/24 02:44:35;;;;;;;29.73;22.00;;;;;;;11.70;100.00;100921.94;1984644;28;20032;-70
2022/09/24 02:45:32;;;;;;;27.92;21.52;;;;;;;11.69;100.00;100922.88;1984941;28;20017;-70
2022/09/24 02:46:29;;;;;;;26.38;20.70;;;;;;;11.68;100.00;100924.66;1978236;28;20030;-69
2022/09/24 02:47:28;;;;;;;28.75;21.83;;;;;;;11.70;100.00;100921.94;1977106;28;20044;-68
2022/09/24 02:48:25;;;;;;;30.65;21.23;;;;;;;11.72;100.00;100921.00;1977262;28;20029;-70
2022/09/24 02:49:23;;;;;;;28.77;22.15;;;;;;;11.72;100.00;100920.13;1977677;28;20115;-70
2022/09/24 02:50:20;;;;;;;29.20;21.52;;;;;;;11.71;100.00;100918.44;1977700;28;20025;-70
2022/09/24 02:51:18;;;;;;;30.02;22.27;;;;;;;11.73;100.00;100921.81;1977754;28;20038;-69
2022/09/24 02:52:15;;;;;;;31.92;22.58;;;;;;;11.70;100.00;100921.94;1977147;28;20021;-69
2022/09/24 02:53:13;;;;;;;32.65;23.50;;;;;;;11.72;100.00;100917.50;1977292;28;20473;-70
2022/09/24 02:54:11;;;;;;;27.67;21.42;;;;;;;11.64;100.00;100922.25;1977677;28;20025;-70
2022/09/24 02:55:08;;;;;;;32.35;24.15;;;;;;;11.66;100.00;100923.00;1977826;28;20054;-70
2022/09/24 02:56:06;;;;;;;35.67;23.23;;;;;;;11.62;100.00;100919.72;1977710;28;20025;-69
2022/09/24 02:57:04;;;;;;;33.33;24.33;;;;;;;11.67;100.00;100919.50;1977711;28;20036;-69
2022/09/24 02:58:01;;;;;;;33.65;24.15;;;;;;;11.65;100.00;100922.19;1977706;28;20034;-69
2022/09/24 02:59:01;;;;;;;34.75;24.98;;;;;;;11.68;100.00;100915.97;1977757;28;20036;-69
2022/09/24 02:59:58;;;;;;;39.30;25.23;;;;;;;11.67;100.00;100920.34;1977757;28;20247;-71
2022/09/24 03:00:56;;;;;;;37.40;26.25;;;;;;;11.67;100.00;100916.88;1977761;28;20029;-70
2022/09/24 03:01:54;;;;;;;35.38;25.35;;;;;;;11.70;100.00;100916.72;1977755;28;20108;-70
2022/09/24 03:02:51;;;;;;;35.80;25.98;;;;;;;11.66;100.00;100912.56;1977848;28;20052;-71
2022/09/24 03:03:50;;;;;;;39.10;24.88;;;;;;;11.67;100.00;100917.72;1977686;28;20514;-68
2022/09/24 03:04:48;;;;;;;39.03;25.67;;;;;;;11.66;100.00;100918.66;1976779;28;20035;-68
2022/09/24 03:05:45;;;;;;;35.97;26.20;;;;;;;11.67;100.00;100917.72;1976987;28;20088;-69
2022/09/24 03:06:43;;;;;;;39.95;27.95;;;;;;;11.67;100.00;100916.88;1977429;28;20040;-69
2022/09/24 03:07:42;;;;;;;38.95;27.30;;;;;;;11.65;100.00;100916.09;1977711;28;20067;-70
2022/09/24 03:08:41;;;;;;;40.75;27.75;;;;;;;11.65;100.00;100909.13;1977800;28;20048;-71
2022/09/24 03:09:38;;;;;;;42.30;27.83;;;;;;;11.64;100.00;100917.03;1985015;28;20094;-70
2022/09/24 03:10:36;;;;;;;41.67;27.45;;;;;;;11.65;100.00;100913.47;1985020;28;20089;-70
2022/09/24 03:11:34;;;;;;;39.67;27.40;;;;;;;11.62;100.00;100918.84;1978396;28;20028;-70
2022/09/24 03:12:32;;;;;;;42.72;27.83;;;;;;;11.59;100.00;100910.25;1975570;28;20056;-70
2022/09/24 03:13:32;;;;;;;42.40;28.23;;;;;;;11.63;100.00;100913.56;1977766;28;20034;-69
2022/09/24 03:14:30;;;;;;;41.85;28.48;;;;;;;11.63;100.00;100910.09;1977679;28;20022;-70
2022/09/24 03:15:28;;;;;;;43.28;30.45;;;;;;;11.63;100.00;100910.09;1977104;28;20072;-70
2022/09/24 03:16:26;;;;;;;40.80;27.83;;;;;;;11.65;100.00;100908.25;1977068;28;20037;-69
2022/09/24 03:17:23;;;;;;;44.45;29.00;;;;;;;11.63;100.00;100904.88;1977661;28;20037;-69
2022/09/24 03:18:27;;;;;;;39.80;27.80;;;;;;;11.59;100.00;100905.00;1977626;28;20029;-71
2022/09/24 03:19:25;;;;;;;45.97;28.35;;;;;;;11.62;100.00;100906.63;1977025;28;20029;-69
2022/09/24 03:20:23;;;;;;;42.00;27.63;;;;;;;11.59;100.00;100904.16;1977105;28;20100;-70
2022/09/24 03:21:21;;;;;;;45.30;29.58;;;;;;;11.61;100.00;100907.56;1977569;28;20033;-70
2022/09/24 03:22:19;;;;;;;48.70;30.50;;;;;;;11.62;100.00;100903.16;1977826;28;20063;-69
2022/09/24 03:23:17;;;;;;;46.10;29.52;;;;;;;11.59;100.00;100905.00;1977770;28;20033;-69
2022/09/24 03:24:14;;;;;;;43.08;28.58;;;;;;;11.58;100.00;100903.34;1977058;28;20017;-69
2022/09/24 03:25:12;;;;;;;42.75;29.17;;;;;;;11.61;100.00;100901.47;1977121;28;20095;-69
2022/09/24 03:26:10;;;;;;;46.88;30.08;;;;;;;11.59;100.00;100897.19;1977722;28;20156;-69
2022/09/24 03:27:07;;;;;;;46.00;29.02;;;;;;;11.59;100.00;100905.00;1977731;28;20099;-70
2022/09/24 03:28:05;;;;;;;46.83;30.25;;;;;;;11.60;100.00;100900.63;1977756;28;20112;-69
2022/09/24 03:29:03;;;;;;;43.08;28.00;;;;;;;11.59;100.00;100897.19;1977573;28;20040;-69
2022/09/24 03:31:17;;;;;;;43.10;28.80;;;;;;;11.58;100.00;100898.09;1977702;28;20029;-69
2022/09/24 03:32:14;;;;;;;49.83;30.70;;;;;;;11.61;100.00;100896.25;1977022;28;20029;-67
2022/09/24 03:33:12;;;;;;;46.40;31.58;;;;;;;11.61;100.00;100896.25;1977114;28;20382;-70
2022/09/24 03:34:10;;;;;;;49.55;31.38;;;;;;;11.61;100.00;100897.09;1983393;28;20534;-69
2022/09/24 03:35:09;;;;;;;45.70;30.25;;;;;;;11.61;100.00;100899.72;1976620;28;20029;-69
2022/09/24 03:36:24;;;;;;;47.00;30.75;;;;;;;11.62;100.00;100898.78;1976755;28;20033;-69
2022/09/24 03:37:27;;;;;;;44.58;30.17;;;;;;;11.64;100.00;100901.34;1977223;28;20101;-69
2022/09/24 03:38:26;;;;;;;46.67;29.85;;;;;;;11.64;100.00;100901.34;1977550;28;20048;-70
2022/09/24 03:39:24;;;;;;;46.58;30.92;;;;;;;11.62;100.00;100901.41;1977560;28;20030;-70
2022/09/24 03:40:21;;;;;;;44.70;30.33;;;;;;;11.61;100.00;100896.25;1977106;28;20057;-69
2022/09/24 03:41:19;;;;;;;44.17;29.02;;;;;;;11.61;100.00;100896.25;1977093;28;20049;-72
2022/09/24 03:42:20;;;;;;;44.80;28.33;;;;;;;11.61;100.00;100896.25;1975366;28;20380;-70
2022/09/24 03:43:18;;;;;;;44.58;29.23;;;;;;;11.62;100.00;100895.31;1977611;28;20029;-69
2022/09/24 03:44:15;;;;;;;48.20;30.30;;;;;;;11.64;100.00;100901.34;1984730;28;20550;-71
2022/09/24 03:45:13;;;;;;;42.75;29.70;;;;;;;11.62;100.00;100890.09;1984739;28;20098;-70
2022/09/24 03:46:12;;;;;;;46.17;30.55;;;;;;;11.65;100.00;100885.59;1978198;28;20557;-69
2022/09/24 03:47:10;;;;;;;45.10;29.63;;;;;;;11.65;100.00;100892.56;1977583;28;20040;-69
2022/09/24 03:48:07;;;;;;;45.10;29.05;;;;;;;11.62;100.00;100888.34;1976740;28;20061;-70
2022/09/24 03:49:05;;;;;;;45.00;30.27;;;;;;;11.63;100.00;100889.19;1977099;28;20025;-70
2022/09/24 03:50:06;;;;;;;42.05;29.25;;;;;;;11.61;100.00;100891.88;1977436;28;20083;-70
2022/09/24 03:51:14;;;;;;;42.42;29.42;;;;;;;11.63;100.00;100889.19;1977670;28;20037;-69
2022/09/24 03:52:12;;;;;;;45.22;30.02;;;;;;;11.62;100.00;100892.72;1977468;28;20456;-70
2022/09/24 03:53:09;;;;;;;47.13;29.35;;;;;;;11.63;100.00;100890.03;1977750;28;20029;-69
2022/09/24 03:54:07;;;;;;;44.05;28.35;;;;;;;11.66;100.00;100886.41;1978489;28;20029;-70
2022/09/24 03:55:06;;;;;;;48.03;28.48;;;;;;;11.64;100.00;100881.28;1979098;28;20033;-70
2022/09/24 03:56:05;;;;;;;40.65;28.58;;;;;;;11.65;100.00;100892.56;1979042;28;20037;-70
2022/09/24 03:57:06;;;;;;;41.35;27.88;;;;;;;11.64;100.00;100880.44;1978936;28;20036;-69
2022/09/24 03:58:03;;;;;;;;;;;;;;;11.63;100.00;100886.59;1978634;28;20029;-70
2022/09/24 03:59:00;;;;;;;37.58;25.40;;;;;;;11.62;100.00;100879.63;1978323;28;20345;-69
2022/09/24 03:59:58;;;;;;;44.78;27.45;;;;;;;11.63;100.00;100878.75;1985399;28;20029;-71
2022/09/24 04:00:56;;;;;;;42.58;27.70;;;;;;;11.64;100.00;100867.34;1979809;28;20029;-72
2022/09/24 04:01:54;;;;;;;39.83;27.20;;;;;;;11.65;100.00;100876.88;1978455;28;20501;-69
2022/09/24 04:02:52;;;;;;;46.50;29.20;;;;;;;11.67;100.00;100880.28;1978428;28;20029;-71
2022/09/24 04:03:50;;;;;;;43.13;28.75;;;;;;;11.64;100.00;100881.28;1985476;28;20025;-70
2022/09/24 04:04:49;;;;;;;44.75;29.40;;;;;;;11.63;100.00;100874.34;1986035;28;20273;-70
2022/09/24 04:05:54;;;;;;;42.88;27.67;;;;;;;11.62;100.00;100871.78;1979567;28;20040;-70
2022/09/24 04:06:52;;;;;;;43.10;28.67;;;;;;;11.59;100.00;100881.50;1978851;28;20108;-71
2022/09/24 04:07:52;;;;;;;44.47;29.77;;;;;;;11.58;100.00;100866.72;1986275;28;20025;-73
2022/09/24 04:08:51;;;;;;;46.03;29.35;;;;;;;11.59;100.00;100872.78;1986184;28;20101;-71
2022/09/24 04:09:48;;;;;;;42.70;28.65;;;;;;;11.61;100.00;100870.09;1979159;28;20027;-70
2022/09/24 04:10:48;;;;;;;43.65;28.98;;;;;;;11.59;100.00;100873.66;1978967;28;20026;-68
2022/09/24 04:11:46;;;;;;;46.53;29.98;;;;;;;11.61;100.00;100864.88;1979088;28;20354;-72
2022/09/24 04:12:44;;;;;;;47.45;28.90;;;;;;;11.62;100.00;100869.19;1976751;28;20437;-70
2022/09/24 04:13:44;;;;;;;43.63;28.80;;;;;;;11.61;100.00;100868.34;1979017;28;20114;-71
2022/09/24 04:14:42;;;;;;;44.22;27.42;;;;;;;11.58;100.00;100871.09;1986157;28;20032;-69
2022/09/24 04:15:40;;;;;;;42.83;28.40;;;;;;;11.61;100.00;100875.34;1986205;28;20036;-71
2022/09/24 04:16:37;;;;;;;46.35;29.30;;;;;;;11.58;100.00;100866.72;1979671;28;20028;-74
2022/09/24 04:17:35;;;;;;;45.47;28.02;;;;;;;11.59;100.00;100863.19;1986005;28;20043;-70
2022/09/24 04:18:35;;;;;;;44.47;27.95;;;;;;;11.59;100.00;100868.44;1986237;28;20029;-71
2022/09/24 04:19:33;;;;;;;43.95;28.02;;;;;;;11.58;100.00;100861.50;1985830;28;20064;-71
2022/09/24 04:20:31;;;;;;;42.10;26.92;;;;;;;11.56;100.00;100862.47;1984750;28;20385;-70
2022/09/24 04:21:29;;;;;;;45.42;26.92;;;;;;;11.56;100.00;100860.72;1986075;28;20556;-73
2022/09/24 04:22:28;;;;;;;44.65;28.38;;;;;;;11.58;100.00;100855.41;1979593;28;20071;-71
2022/09/24 04:23:26;;;;;;;48.10;27.58;;;;;;;11.56;100.00;100859.84;1978305;28;20041;-71
2022/09/24 04:24:23;;;;;;;41.70;27.33;;;;;;;11.54;100.00;100859.97;1978349;28;20104;-70
2022/09/24 04:25:27;;;;;;;47.03;27.52;;;;;;;11.53;100.00;100858.25;1978723;28;20428;-71
2022/09/24 04:26:25;;;;;;;44.95;28.73;;;;;;;11.54;100.00;100854.72;1978913;28;20029;-71
2022/09/24 04:27:23;;;;;;;43.38;28.55;;;;;;;11.53;100.00;100863.47;1978063;28;20457;-68
2022/09/24 04:28:20;;;;;;;44.13;27.20;;;;;;;11.53;100.00;100858.25;1978028;28;20029;-70
2022/09/24 04:29:18;;;;;;;46.00;28.67;;;;;;;11.53;100.00;100858.25;1985250;28;20062;-71
2022/09/24 04:30:15;;;;;;;42.03;27.08;;;;;;;11.54;100.00;100859.97;1979414;28;20033;-72
2022/09/24 04:31:13;;;;;;;46.00;28.42;;;;;;;11.53;100.00;100858.25;1978723;28;20369;-70
2022/09/24 04:32:10;;;;;;;45.28;27.52;;;;;;;11.55;100.00;100850.34;1978764;28;20025;-70
2022/09/24 04:33:08;;;;;;;45.20;29.77;;;;;;;11.54;100.00;100857.34;1978683;28;20060;-70
2022/09/24 04:34:06;;;;;;;46.65;28.90;;;;;;;11.56;100.00;100858.09;1978404;28;20079;-71
2022/09/24 04:35:04;;;;;;;48.22;30.10;;;;;;;11.55;100.00;100860.78;1978522;28;20030;-71
2022/09/24 04:36:02;;;;;;;47.33;29.08;;;;;;;11.53;100.00;100858.25;1978628;28;20033;-70
2022/09/24 04:37:00;;;;;;;46.70;28.65;;;;;;;11.52;100.00;100856.56;1978777;28;20025;-70
2022/09/24 04:38:02;;;;;;;47.17;28.70;;;;;;;11.54;100.00;100859.09;1978594;28;20040;-71
2022/09/24 04:39:00;;;;;;;44.05;27.48;;;;;;;11.51;100.00;100860.09;1978665;28;20055;-70
2022/09/24 04:39:58;;;;;;;46.67;28.42;;;;;;;11.52;100.00;100861.78;1978721;28;20105;-69
2022/09/24 04:41:05;;;;;;;47.05;30.92;;;;;;;11.52;100.00;100851.31;1978646;28;20031;-71
2022/09/24 04:42:02;;;;;;;48.40;29.85;;;;;;;11.54;100.00;100865.19;1976433;28;20033;-70
2022/09/24 04:43:01;;;;;;;46.33;29.83;;;;;;;11.55;100.00;100866.00;1978672;28;20021;-70
2022/09/24 04:43:59;;;;;;;50.42;30.45;;;;;;;11.56;100.00;100859.84;1977891;28;20029;-71